Time;durP1;ratioP1;P1;durP2;ratioP2;P2;SDS_P1;SDS_P2;PMS_P1;PMS_P2;Temp;Humidity;BMP_temperature;BMP_pressure;BME280_temperature;BME280_humidity;BME280_pressure;Samples;Min_cycle;Max_cycle;Signal;HPM_P1;HPM_P2
2023/04/23 00:02:00;;;;;;;8.38;3.42;;;12.40;92.70;;;;;;5026838;28;20504;-69
2023/04/23 00:04:27;;;;;;;10.30;2.90;;;12.40;92.40;;;;;;5010382;28;20038;-71
2023/04/23 00:06:54;;;;;;;6.47;2.85;;;12.40;92.50;;;;;;5021597;28;20030;-70
2023/04/23 00:09:22;;;;;;;8.43;3.38;;;12.40;92.80;;;;;;5021850;28;20032;-71
2023/04/23 00:11:51;;;;;;;8.77;3.30;;;12.40;93.10;;;;;;5009706;28;20034;-70
2023/04/23 00:14:16;;;;;;;10.57;3.42;;;12.30;93.10;;;;;;5013363;28;20030;-70
2023/04/23 00:16:42;;;;;;;11.02;4.05;;;12.30;93.30;;;;;;5009395;28;20231;-70
2023/04/23 00:19:08;;;;;;;8.15;3.10;;;12.30;93.30;;;;;;4995589;28;20066;-71
2023/04/23 00:21:33;;;;;;;8.20;3.03;;;12.30;93.10;;;;;;4998081;28;20038;-71
2023/04/23 00:23:59;;;;;;;6.22;3.45;;;12.30;93.10;;;;;;4995671;28;20026;-70
2023/04/23 00:26:24;;;;;;;8.43;3.20;;;12.30;92.90;;;;;;4995307;28;20113;-70
2023/04/23 00:28:50;;;;;;;6.57;3.05;;;12.30;92.90;;;;;;5013605;28;20033;-71
2023/04/23 00:31:16;;;;;;;7.88;3.35;;;12.30;93.00;;;;;;5018963;28;20033;-70
2023/04/23 00:33:42;;;;;;;9.20;3.45;;;12.30;93.10;;;;;;5013652;28;20427;-70
2023/04/23 00:36:08;;;;;;;6.38;3.15;;;12.30;93.20;;;;;;5012998;28;20033;-69
2023/04/23 00:38:33;;;;;;;5.18;2.50;;;12.30;93.30;;;;;;5013618;28;20033;-70
2023/04/23 00:40:59;;;;;;;6.20;3.03;;;12.20;93.40;;;;;;5011188;28;20030;-70
2023/04/23 00:43:25;;;;;;;8.65;2.70;;;12.20;93.50;;;;;;4994712;28;20454;-71
2023/04/23 00:45:51;;;;;;;7.35;2.78;;;12.20;93.60;;;;;;4993498;28;20415;-71
2023/04/23 00:48:17;;;;;;;9.38;3.33;;;12.30;93.40;;;;;;4995721;28;20044;-70
2023/04/23 00:50:42;;;;;;;9.85;3.15;;;12.30;93.50;;;;;;5003423;28;20026;-71
2023/04/23 00:53:08;;;;;;;6.78;3.30;;;12.30;93.80;;;;;;5009317;28;20441;-71
2023/04/23 00:55:34;;;;;;;6.43;2.90;;;12.20;93.90;;;;;;5016348;28;20519;-71
2023/04/23 00:58:00;;;;;;;9.30;3.03;;;12.20;94.30;;;;;;5008090;28;20058;-71
2023/04/23 01:00:26;;;;;;;6.70;2.80;;;12.10;94.60;;;;;;5014992;28;20080;-71
2023/04/23 01:02:52;;;;;;;7.35;3.03;;;12.10;94.60;;;;;;5008000;28;20034;-71
2023/04/23 01:05:20;;;;;;;8.82;3.10;;;12.10;94.60;;;;;;4996647;28;20018;-71
2023/04/23 01:07:46;;;;;;;8.75;2.95;;;12.00;95.20;;;;;;5018161;28;20038;-71
2023/04/23 01:10:12;;;;;;;5.60;3.00;;;11.90;95.70;;;;;;5011322;28;20026;-71
2023/04/23 01:12:38;;;;;;;8.13;3.20;;;11.80;96.10;;;;;;4997327;28;20481;-70
2023/04/23 01:15:04;;;;;;;5.82;3.00;;;11.80;96.40;;;;;;4997235;28;20037;-71
2023/04/23 01:17:31;;;;;;;8.07;3.03;;;11.70;96.40;;;;;;4996069;28;20022;-72
2023/04/23 01:19:56;;;;;;;8.95;2.75;;;11.60;97.10;;;;;;5011206;28;20492;-71
2023/04/23 01:22:22;;;;;;;7.95;2.95;;;11.40;97.00;;;;;;5005381;28;20111;-72
2023/04/23 01:24:48;;;;;;;7.10;2.33;;;11.40;97.60;;;;;;4996376;28;20169;-72
2023/04/23 01:27:15;;;;;;;6.05;2.47;;;11.40;96.70;;;;;;4996132;28;20030;-72
2023/04/23 01:29:41;;;;;;;5.75;2.30;;;11.30;97.10;;;;;;4996333;28;20105;-72
2023/04/23 01:32:07;;;;;;;5.75;2.22;;;11.30;96.80;;;;;;4996492;28;20042;-72
2023/04/23 01:34:34;;;;;;;4.82;2.30;;;11.10;97.20;;;;;;5013216;28;20036;-72
2023/04/23 01:37:04;;;;;;;5.72;2.10;;;11.10;96.80;;;;;;5009878;28;20421;-72
2023/04/23 01:39:30;;;;;;;4.57;2.22;;;11.00;96.60;;;;;;5016000;28;20022;-72
2023/04/23 01:41:56;;;;;;;5.05;2.15;;;10.90;96.20;;;;;;5009494;28;20044;-72
2023/04/23 01:44:21;;;;;;;3.78;2.20;;;10.80;96.10;;;;;;4996180;28;20344;-72
2023/04/23 01:46:47;;;;;;;4.03;1.90;;;10.70;95.90;;;;;;4995739;28;20041;-73
2023/04/23 01:49:13;;;;;;;5.18;2.30;;;10.70;95.70;;;;;;4996636;28;20035;-73
2023/04/23 01:51:38;;;;;;;5.50;2.33;;;10.60;96.00;;;;;;4996612;28;20049;-73
2023/04/23 01:54:04;;;;;;;4.63;2.13;;;10.60;95.80;;;;;;5002335;28;20061;-72
2023/04/23 01:56:32;;;;;;;3.55;1.98;;;10.60;95.80;;;;;;5013714;28;20374;-72
2023/04/23 01:58:57;;;;;;;4.50;2.17;;;10.60;94.80;;;;;;4996003;28;20077;-72
2023/04/23 02:01:23;;;;;;;5.35;2.55;;;10.50;95.00;;;;;;4995434;28;20331;-72
2023/04/23 02:03:49;;;;;;;5.45;1.85;;;10.50;93.80;;;;;;5004479;28;20025;-71
2023/04/23 02:06:15;;;;;;;5.65;2.20;;;10.50;94.60;;;;;;5014802;28;20046;-73
2023/04/23 02:08:41;;;;;;;3.92;2.00;;;10.50;94.80;;;;;;4997260;28;20029;-72
2023/04/23 02:11:07;;;;;;;4.95;1.88;;;10.40;94.20;;;;;;5001821;28;20029;-72
2023/04/23 02:13:32;;;;;;;4.22;2.13;;;10.40;93.50;;;;;;5002347;28;20044;-73
2023/04/23 02:15:58;;;;;;;4.38;2.17;;;10.30;92.50;;;;;;5014492;28;20022;-73
2023/04/23 02:18:24;;;;;;;3.83;1.98;;;10.30;92.30;;;;;;5001483;28;20305;-73
2023/04/23 02:20:50;;;;;;;4.38;2.05;;;10.20;91.00;;;;;;4995804;28;20037;-74
2023/04/23 02:23:18;;;;;;;4.50;2.17;;;10.10;91.10;;;;;;4997970;28;20026;-74
2023/04/23 02:25:44;;;;;;;5.68;2.15;;;10.10;91.10;;;;;;5015475;28;20029;-73
2023/04/23 02:28:12;;;;;;;4.57;2.03;;;10.10;90.20;;;;;;5012891;28;20056;-73
2023/04/23 02:30:39;;;;;;;5.15;2.30;;;10.10;90.20;;;;;;5015179;28;20030;-73
2023/04/23 02:33:04;;;;;;;3.92;1.90;;;10.10;89.60;;;;;;5017139;28;20022;-72
2023/04/23 02:35:30;;;;;;;4.60;2.25;;;10.00;90.00;;;;;;5018288;28;20026;-73
2023/04/23 02:37:56;;;;;;;3.60;2.00;;;10.00;88.90;;;;;;5017992;28;20090;-72
2023/04/23 02:40:21;;;;;;;4.43;2.13;;;9.90;88.00;;;;;;5018859;28;20041;-73
2023/04/23 02:42:48;;;;;;;5.38;2.15;;;9.80;86.70;;;;;;5013636;28;20030;-73
2023/04/23 02:45:13;;;;;;;4.32;2.10;;;9.90;88.20;;;;;;5012784;28;20473;-74
2023/04/23 02:47:39;;;;;;;5.00;2.20;;;9.80;87.00;;;;;;5017940;28;20117;-74
2023/04/23 02:50:06;;;;;;;5.18;2.28;;;9.70;85.80;;;;;;5018592;28;20044;-74
2023/04/23 02:52:32;;;;;;;4.82;2.10;;;9.70;84.60;;;;;;5017322;28;20022;-75
2023/04/23 02:54:59;;;;;;;4.97;2.17;;;9.60;83.50;;;;;;5016514;28;20053;-75
2023/04/23 02:57:24;;;;;;;3.63;2.10;;;9.60;83.10;;;;;;5017236;28;20045;-76
2023/04/23 02:59:50;;;;;;;4.22;2.20;;;9.60;82.40;;;;;;5007053;28;20025;-75
2023/04/23 03:02:15;;;;;;;4.80;1.90;;;9.60;81.30;;;;;;5016338;28;20128;-75
2023/04/23 03:04:41;;;;;;;5.07;2.05;;;9.50;80.80;;;;;;5017911;28;20029;-75
2023/04/23 03:07:07;;;;;;;4.57;2.20;;;9.50;80.60;;;;;;5018344;28;20018;-75
2023/04/23 03:09:32;;;;;;;5.32;2.33;;;9.50;78.50;;;;;;5017127;28;20025;-74
2023/04/23 03:11:58;;;;;;;3.00;1.58;;;9.50;77.00;;;;;;5017691;28;20088;-75
2023/04/23 03:14:24;;;;;;;3.95;1.80;;;9.60;76.00;;;;;;5017512;28;20046;-74
2023/04/23 03:16:49;;;;;;;3.83;1.88;;;9.50;77.20;;;;;;5019590;28;20334;-74
2023/04/23 03:19:15;;;;;;;4.07;1.80;;;9.50;77.70;;;;;;5019165;28;20021;-74
2023/04/23 03:21:41;;;;;;;3.72;1.70;;;9.50;78.40;;;;;;5018075;28;20545;-74
2023/04/23 03:24:06;;;;;;;2.20;1.10;;;9.40;78.40;;;;;;5017309;28;20048;-74
2023/04/23 03:26:33;;;;;;;1.92;1.13;;;9.50;85.30;;;;;;5014261;28;20030;-73
2023/04/23 03:29:01;;;;;;;3.35;1.33;;;9.50;84.50;;;;;;5007967;28;20018;-74
2023/04/23 03:31:27;;;;;;;2.55;1.20;;;9.40;85.30;;;;;;5003284;28;20026;-73
2023/04/23 03:33:53;;;;;;;2.53;1.27;;;9.40;85.50;;;;;;4999957;28;20032;-74
2023/04/23 03:36:18;;;;;;;2.97;1.65;;;9.50;87.20;;;;;;5013090;28;20069;-74
2023/04/23 03:38:44;;;;;;;4.38;1.45;;;9.40;85.10;;;;;;5016871;28;20057;-74
2023/04/23 03:41:10;;;;;;;3.90;1.50;;;9.40;82.60;;;;;;5020602;28;20025;-73
2023/04/23 03:43:35;;;;;;;3.42;1.55;;;9.40;82.20;;;;;;5013763;28;20100;-73
2023/04/23 03:46:01;;;;;;;2.50;1.20;;;9.30;83.10;;;;;;4998677;28;20315;-74
2023/04/23 03:48:26;;;;;;;3.03;1.23;;;9.30;83.80;;;;;;5005654;28;20415;-73
2023/04/23 03:50:52;;;;;;;3.20;1.13;;;9.20;81.60;;;;;;5016768;28;20040;-73
2023/04/23 03:53:17;;;;;;;2.03;1.00;;;9.20;80.90;;;;;;5013139;28;20080;-73
2023/04/23 03:55:43;;;;;;;2.55;1.17;;;9.10;82.40;;;;;;4998314;28;20421;-73
2023/04/23 03:58:09;;;;;;;2.67;1.08;;;9.20;85.70;;;;;;5021204;28;20046;-73
2023/04/23 04:00:35;;;;;;;1.75;1.00;;;9.20;85.50;;;;;;5015004;28;20132;-73
2023/04/23 04:03:00;;;;;;;2.28;1.13;;;9.10;85.30;;;;;;5016067;28;20422;-73
2023/04/23 04:05:27;;;;;;;1.77;1.00;;;9.10;85.20;;;;;;5018979;28;20029;-73
2023/04/23 04:07:53;;;;;;;2.15;1.00;;;9.10;86.40;;;;;;5016707;28;20121;-73
2023/04/23 04:10:19;;;;;;;2.45;1.10;;;9.20;87.90;;;;;;5000197;28;20105;-73
2023/04/23 04:12:46;;;;;;;2.95;1.02;;;9.30;91.00;;;;;;4997686;28;20371;-73
2023/04/23 04:15:12;;;;;;;1.80;1.05;;;9.30;92.00;;;;;;4996040;28;20491;-73
2023/04/23 04:17:38;;;;;;;2.80;1.10;;;9.50;92.20;;;;;;4997456;28;20125;-73
2023/04/23 04:20:05;;;;;;;2.45;1.10;;;9.40;92.00;;;;;;5015372;28;20022;-73
2023/04/23 04:22:31;;;;;;;2.22;1.00;;;9.40;91.60;;;;;;4997764;28;20034;-73
2023/04/23 04:24:56;;;;;;;1.70;1.00;;;9.30;91.20;;;;;;5013213;28;20032;-73
2023/04/23 04:27:22;;;;;;;1.92;1.08;;;9.40;93.40;;;;;;5019270;28;20105;-73
2023/04/23 04:29:48;;;;;;;1.60;1.00;;;9.40;93.20;;;;;;5014334;28;20030;-73
2023/04/23 04:32:14;;;;;;;2.10;1.02;;;9.30;92.40;;;;;;5015601;28;20034;-72
2023/04/23 04:34:39;;;;;;;2.88;0.95;;;9.20;92.80;;;;;;5004108;28;20026;-73
2023/04/23 04:37:05;;;;;;;2.78;1.00;;;9.20;93.90;;;;;;5014630;28;20033;-72
2023/04/23 04:39:31;;;;;;;1.80;1.02;;;9.10;93.00;;;;;;5019003;28;20079;-73
2023/04/23 04:41:56;;;;;;;1.95;1.00;;;9.00;91.90;;;;;;5016160;28;20048;-73
2023/04/23 04:44:22;;;;;;;2.80;1.08;;;9.00;93.20;;;;;;5012508;28;20022;-73
2023/04/23 04:46:48;;;;;;;2.28;1.10;;;9.00;94.10;;;;;;5013894;28;20057;-73
2023/04/23 04:49:13;;;;;;;3.83;1.58;;;9.00;94.00;;;;;;4997741;28;20030;-73
2023/04/23 04:51:40;;;;;;;1.85;0.90;;;9.10;95.40;;;;;;4996949;28;20033;-73
2023/04/23 04:54:06;;;;;;;3.03;1.02;;;9.10;94.60;;;;;;5009466;28;20029;-72
2023/04/23 04:56:33;;;;;;;1.92;1.00;;;9.10;94.40;;;;;;5007459;28;20683;-72
2023/04/23 04:58:59;;;;;;;1.95;0.90;;;9.10;94.90;;;;;;5048419;28;20054;-73
2023/04/23 05:01:26;;;;;;;2.05;1.00;;;9.10;95.00;;;;;;5007788;28;20373;-72
2023/04/23 05:03:52;;;;;;;3.03;1.10;;;9.10;96.20;;;;;;5017470;28;20022;-72
2023/04/23 05:06:18;;;;;;;1.73;0.80;;;9.20;94.60;;;;;;5015167;28;20049;-72
2023/04/23 05:08:46;;;;;;;2.83;1.02;;;9.20;95.50;;;;;;5012730;28;20301;-72
2023/04/23 05:11:19;;;;;;;2.85;0.88;;;9.30;94.80;;;;;;5006498;28;20029;-72
2023/04/23 05:13:46;;;;;;;1.83;1.00;;;9.30;96.50;;;;;;5005728;28;20026;-72
2023/04/23 05:16:12;;;;;;;2.80;1.00;;;9.40;95.40;;;;;;5012937;28;20034;-72
2023/04/23 05:18:38;;;;;;;1.67;0.80;;;9.50;96.50;;;;;;5003120;28;20061;-73
2023/04/23 05:21:05;;;;;;;4.00;1.00;;;9.50;96.40;;;;;;5002917;28;20414;-72
2023/04/23 05:23:31;;;;;;;2.88;1.00;;;9.50;97.50;;;;;;5015569;28;20036;-72
2023/04/23 05:25:57;;;;;;;3.22;1.00;;;9.60;96.60;;;;;;5013818;28;20033;-73
2023/04/23 05:28:23;;;;;;;2.03;1.10;;;9.70;97.90;;;;;;5015248;28;20018;-71
2023/04/23 05:30:50;;;;;;;2.40;0.82;;;9.80;98.00;;;;;;5009145;28;20049;-72
2023/04/23 05:33:15;;;;;;;1.77;1.00;;;9.80;97.30;;;;;;5028049;28;20489;-72
2023/04/23 05:35:41;;;;;;;2.47;1.00;;;9.70;94.80;;;;;;5014368;28;20034;-71
2023/04/23 05:38:07;;;;;;;2.88;1.10;;;9.70;93.00;;;;;;5017008;28;20431;-72
2023/04/23 05:40:33;;;;;;;2.42;1.00;;;9.80;94.00;;;;;;5014095;28;20030;-72
2023/04/23 05:42:59;;;;;;;2.70;1.20;;;9.90;95.00;;;;;;5003038;28;20041;-72
2023/04/23 05:45:25;;;;;;;2.38;1.10;;;10.00;94.90;;;;;;5010840;28;20159;-72
2023/04/23 05:47:50;;;;;;;2.65;1.17;;;10.10;94.50;;;;;;5021444;28;20053;-73
2023/04/23 05:50:17;;;;;;;3.03;1.25;;;10.20;95.00;;;;;;5015934;28;20025;-73
2023/04/23 05:52:42;;;;;;;2.22;1.00;;;10.30;94.90;;;;;;5010458;28;20331;-73
2023/04/23 05:55:08;;;;;;;1.98;0.90;;;10.40;96.40;;;;;;5014607;28;20026;-72
2023/04/23 05:57:35;;;;;;;2.72;0.90;;;10.60;97.30;;;;;;5016582;28;20099;-72
2023/04/23 06:00:02;;;;;;;2.60;1.20;;;10.60;98.00;;;;;;5015072;28;20038;-72
2023/04/23 06:02:28;;;;;;;2.33;1.00;;;10.60;97.60;;;;;;4999839;28;20038;-73
2023/04/23 06:04:53;;;;;;;4.10;0.90;;;10.60;97.70;;;;;;5018836;28;20021;-73
2023/04/23 06:07:22;;;;;;;1.73;0.85;;;10.60;97.90;;;;;;5017379;28;20025;-73
2023/04/23 06:09:47;;;;;;;1.42;0.90;;;10.60;97.70;;;;;;5017260;28;20029;-72
2023/04/23 06:12:13;;;;;;;2.30;0.80;;;10.60;98.00;;;;;;5019096;28;20033;-73
2023/04/23 06:14:38;;;;;;;3.47;0.90;;;10.70;98.00;;;;;;5023838;28;20087;-73
2023/04/23 06:17:07;;;;;;;2.75;1.05;;;10.90;98.00;;;;;;5018197;28;20022;-73
2023/04/23 06:19:32;;;;;;;3.45;0.90;;;11.40;98.00;;;;;;5017644;28;20010;-73
2023/04/23 06:21:58;;;;;;;2.35;1.02;;;11.70;97.50;;;;;;5017742;28;20128;-73
2023/04/23 06:24:24;;;;;;;2.63;1.08;;;12.00;97.50;;;;;;5017871;28;20037;-73
2023/04/23 06:26:49;;;;;;;1.90;0.93;;;12.30;97.00;;;;;;5018088;28;20026;-73
2023/04/23 06:29:15;;;;;;;1.88;0.80;;;12.60;96.50;;;;;;5017934;28;20486;-73
2023/04/23 06:31:40;;;;;;;1.52;0.82;;;12.80;95.20;;;;;;5016772;28;20032;-73
2023/04/23 06:34:06;;;;;;;2.10;1.00;;;12.70;95.30;;;;;;5017405;28;20033;-73
2023/04/23 06:36:32;;;;;;;1.20;0.68;;;12.80;95.80;;;;;;5018196;28;20503;-73
2023/04/23 06:38:57;;;;;;;2.22;1.00;;;12.50;93.70;;;;;;5017925;28;20061;-73
2023/04/23 06:41:23;;;;;;;3.03;1.00;;;12.50;94.10;;;;;;5018930;28;20034;-73
2023/04/23 06:43:48;;;;;;;2.20;0.90;;;12.50;94.10;;;;;;5017707;28;20040;-73
2023/04/23 06:46:14;;;;;;;2.05;1.10;;;12.50;94.10;;;;;;5017529;28;20087;-72
2023/04/23 06:48:40;;;;;;;4.13;1.00;;;12.40;93.80;;;;;;5009132;28;20053;-73
2023/04/23 06:51:06;;;;;;;1.55;0.90;;;12.60;94.30;;;;;;5015585;28;20073;-73
2023/04/23 06:53:32;;;;;;;2.10;0.90;;;12.70;93.50;;;;;;5005992;28;20037;-73
2023/04/23 06:55:57;;;;;;;2.38;1.00;;;12.80;92.90;;;;;;5012194;28;20038;-73
2023/04/23 06:58:29;;;;;;;2.50;1.00;;;12.70;93.00;;;;;;5005117;28;20129;-73
2023/04/23 07:01:06;;;;;;;2.13;0.95;;;12.50;93.30;;;;;;5017775;28;20089;-73
2023/04/23 07:03:32;;;;;;;2.90;1.15;;;12.20;94.10;;;;;;5011190;28;20132;-74
2023/04/23 07:05:57;;;;;;;2.05;0.85;;;12.30;95.20;;;;;;5012346;28;20382;-73
2023/04/23 07:08:23;;;;;;;1.83;0.90;;;12.40;94.90;;;;;;5018196;28;20080;-73
2023/04/23 07:10:48;;;;;;;2.70;1.15;;;12.50;94.30;;;;;;5006185;28;20037;-73
2023/04/23 07:13:15;;;;;;;1.73;1.00;;;12.60;94.10;;;;;;5011168;28;20041;-73
2023/04/23 07:15:41;;;;;;;3.30;0.90;;;12.80;92.90;;;;;;5011066;28;20022;-73
2023/04/23 07:18:07;;;;;;;2.97;0.90;;;12.90;91.90;;;;;;5020031;28;20026;-73
2023/04/23 07:20:32;;;;;;;2.22;0.98;;;13.00;91.30;;;;;;5003831;28;20041;-73
2023/04/23 07:22:58;;;;;;;2.45;0.80;;;13.30;90.90;;;;;;5013466;28;20100;-73
2023/04/23 07:25:25;;;;;;;3.15;1.00;;;13.70;89.90;;;;;;5016393;28;20025;-73
2023/04/23 07:27:52;;;;;;;4.63;1.02;;;14.00;88.90;;;;;;5008568;28;20021;-73
2023/04/23 07:30:19;;;;;;;3.42;0.95;;;14.20;88.00;;;;;;4994151;28;20438;-73
2023/04/23 07:32:45;;;;;;;2.28;0.85;;;14.30;87.90;;;;;;4995847;28;20841;-73
2023/04/23 07:35:11;;;;;;;2.28;0.90;;;13.90;88.50;;;;;;4995224;28;20038;-73
2023/04/23 07:37:36;;;;;;;2.10;1.00;;;13.70;88.30;;;;;;4992593;28;20049;-73
2023/04/23 07:40:04;;;;;;;1.88;0.88;;;13.70;88.20;;;;;;5001517;28;20030;-73
2023/04/23 07:42:30;;;;;;;2.65;0.90;;;13.50;89.10;;;;;;5016000;28;20024;-73
2023/04/23 07:44:55;;;;;;;2.55;0.93;;;14.00;89.60;;;;;;4995682;28;20034;-73
2023/04/23 07:47:21;;;;;;;1.48;0.80;;;14.50;87.10;;;;;;4989833;28;20057;-73
2023/04/23 07:49:50;;;;;;;2.22;0.85;;;14.90;86.40;;;;;;5006597;28;21080;-73
2023/04/23 07:52:16;;;;;;;1.23;0.70;;;15.50;85.40;;;;;;5001356;28;20026;-73
2023/04/23 07:54:42;;;;;;;2.00;0.80;;;16.40;82.00;;;;;;4998166;28;20301;-73
2023/04/23 07:57:08;;;;;;;2.10;0.90;;;17.60;79.50;;;;;;5008447;28;20053;-73
2023/04/23 07:59:33;;;;;;;3.10;1.05;;;17.40;79.40;;;;;;5019403;28;20026;-73
2023/04/23 08:01:59;;;;;;;2.30;0.68;;;17.40;79.40;;;;;;5015695;28;20108;-74
2023/04/23 08:04:24;;;;;;;2.75;1.00;;;17.70;78.50;;;;;;5006938;28;20037;-73
2023/04/23 08:06:50;;;;;;;2.70;0.90;;;17.70;77.90;;;;;;5005963;28;20101;-73
2023/04/23 08:09:16;;;;;;;1.92;0.80;;;16.90;78.90;;;;;;5011863;28;20433;-73
2023/04/23 08:11:42;;;;;;;1.88;1.02;;;16.40;80.50;;;;;;5005497;28;20026;-73
2023/04/23 08:14:07;;;;;;;2.78;1.10;;;16.50;81.40;;;;;;5014719;28;20029;-73
2023/04/23 08:16:33;;;;;;;2.00;0.95;;;16.40;81.30;;;;;;5025232;28;20342;-73
2023/04/23 08:18:59;;;;;;;3.10;1.00;;;16.50;81.70;;;;;;5020139;28;20030;-73
2023/04/23 08:21:28;;;;;;;2.15;1.02;;;16.60;81.20;;;;;;5013793;28;20026;-73
2023/04/23 08:23:54;;;;;;;1.70;0.90;;;15.80;82.20;;;;;;5018806;28;20018;-73
2023/04/23 08:26:19;;;;;;;2.70;1.02;;;15.50;82.20;;;;;;5017697;28;20030;-73
2023/04/23 08:28:45;;;;;;;1.75;0.90;;;15.40;81.90;;;;;;5008859;28;21173;-73
2023/04/23 08:31:11;;;;;;;2.80;0.90;;;15.60;81.40;;;;;;5011594;28;20115;-73
2023/04/23 08:33:37;;;;;;;3.30;1.08;;;15.90;81.90;;;;;;5011078;28;20057;-73
2023/04/23 08:36:02;;;;;;;3.35;0.85;;;16.20;80.50;;;;;;5012870;28;20433;-73
2023/04/23 08:38:28;;;;;;;2.95;0.93;;;16.40;80.40;;;;;;5010048;28;20505;-73
2023/04/23 08:40:57;;;;;;;2.10;1.10;;;17.00;78.40;;;;;;5014141;28;20060;-73
2023/04/23 08:43:33;;;;;;;3.53;0.90;;;17.10;77.60;;;;;;5007413;28;20021;-73
2023/04/23 08:46:05;;;;;;;2.85;1.10;;;17.30;76.90;;;;;;5005252;28;20073;-73
2023/04/23 08:48:33;;;;;;;3.92;1.00;;;17.90;76.90;;;;;;4999261;28;20319;-73
2023/04/23 08:51:01;;;;;;;1.52;0.82;;;19.10;74.00;;;;;;5008480;28;20587;-73
2023/04/23 08:53:28;;;;;;;1.80;0.90;;;19.40;72.20;;;;;;5004485;28;20030;-73
2023/04/23 08:55:55;;;;;;;2.28;0.90;;;19.30;72.40;;;;;;5012086;28;20032;-73
2023/04/23 08:58:21;;;;;;;2.22;1.05;;;19.20;71.50;;;;;;5010581;28;21792;-73
2023/04/23 09:00:48;;;;;;;2.45;0.90;;;20.60;72.00;;;;;;5014022;28;20040;-74
2023/04/23 09:03:15;;;;;;;2.65;1.20;;;21.70;67.80;;;;;;5011763;28;20046;-73
2023/04/23 09:05:42;;;;;;;2.22;0.80;;;21.00;67.90;;;;;;5014309;28;20026;-73
2023/04/23 09:08:09;;;;;;;2.10;0.90;;;19.80;69.20;;;;;;5003816;28;20030;-73
2023/04/23 09:10:37;;;;;;;2.35;1.00;;;18.70;71.90;;;;;;5006014;28;20038;-74
2023/04/23 09:13:03;;;;;;;3.58;1.08;;;19.30;72.00;;;;;;5007914;28;20369;-73
2023/04/23 09:15:28;;;;;;;2.03;1.10;;;20.00;69.90;;;;;;5014490;28;20103;-73
2023/04/23 09:17:54;;;;;;;2.80;1.00;;;20.70;69.30;;;;;;5009752;28;20061;-72
2023/04/23 09:20:20;;;;;;;2.45;1.08;;;21.40;68.80;;;;;;5009176;28;20031;-73
2023/04/23 09:22:51;;;;;;;2.92;0.95;;;22.60;65.80;;;;;;5010819;28;20025;-72
2023/04/23 09:25:19;;;;;;;2.20;1.00;;;23.10;64.10;;;;;;5007160;28;20028;-72
2023/04/23 09:27:46;;;;;;;1.92;0.77;;;21.50;65.90;;;;;;5010201;28;20030;-72
2023/04/23 09:30:12;;;;;;;3.08;1.08;;;19.70;69.20;;;;;;5010150;28;20029;-72
2023/04/23 09:32:40;;;;;;;2.53;1.20;;;18.40;72.00;;;;;;5004964;28;20044;-72
2023/04/23 09:35:08;;;;;;;2.63;1.27;;;18.00;73.90;;;;;;5009445;28;20337;-72
2023/04/23 09:37:34;;;;;;;3.30;1.30;;;17.60;75.90;;;;;;5007938;28;20319;-72
2023/04/23 09:40:07;;;;;;;2.83;1.10;;;17.40;77.20;;;;;;5009750;28;20052;-72
2023/04/23 09:42:33;;;;;;;2.90;1.03;;;17.20;77.40;;;;;;5009300;28;20046;-73
2023/04/23 09:45:11;;;;;;;2.58;1.00;;;17.40;77.00;;;;;;5016560;28;20103;-72
2023/04/23 09:47:59;;;;;;;2.28;1.00;;;17.40;76.70;;;;;;5007397;28;20030;-72
2023/04/23 09:50:37;;;;;;;1.77;1.00;;;17.10;76.80;;;;;;5008829;28;20037;-72
2023/04/23 09:53:04;;;;;;;3.25;1.30;;;17.00;77.70;;;;;;5004374;28;20022;-72
2023/04/23 09:55:34;;;;;;;2.72;1.27;;;17.80;77.20;;;;;;5017265;28;20049;-71
2023/04/23 09:58:00;;;;;;;2.58;1.20;;;18.70;77.20;;;;;;5007974;28;20050;-73
2023/04/23 10:00:33;;;;;;;5.10;1.10;;;20.00;72.70;;;;;;5011262;28;21434;-72
2023/04/23 10:02:59;;;;;;;4.53;1.50;;;20.60;71.30;;;;;;5008654;28;20284;-72
2023/04/23 10:05:25;;;;;;;2.58;1.25;;;20.50;70.20;;;;;;5008818;28;20041;-72
2023/04/23 10:07:50;;;;;;;2.25;1.10;;;20.40;70.90;;;;;;5011661;28;20022;-72
2023/04/23 10:10:18;;;;;;;2.38;1.00;;;21.50;71.20;;;;;;5011417;28;20026;-72
2023/04/23 10:12:47;;;;;;;3.90;1.50;;;21.60;69.70;;;;;;5012358;28;20133;-72
2023/04/23 10:15:13;;;;;;;3.17;1.30;;;21.60;67.90;;;;;;5006509;28;20108;-71
2023/04/23 10:17:40;;;;;;;2.88;1.20;;;20.20;69.30;;;;;;5006832;28;20025;-72
2023/04/23 10:20:07;;;;;;;2.20;1.08;;;18.80;71.80;;;;;;5020790;28;20033;-72
2023/04/23 10:22:33;;;;;;;2.65;1.20;;;18.10;74.00;;;;;;5012311;28;20053;-73
2023/04/23 10:25:07;;;;;;;2.38;1.30;;;17.90;76.40;;;;;;5009435;28;20029;-72
2023/04/23 10:27:38;;;;;;;3.13;1.20;;;18.00;75.20;;;;;;5019584;28;20308;-72
2023/04/23 10:30:08;;;;;;;3.08;1.20;;;18.70;75.60;;;;;;5015806;28;20022;-72
2023/04/23 10:32:39;;;;;;;2.78;1.17;;;20.10;74.50;;;;;;5008680;28;20041;-72
2023/04/23 10:35:08;;;;;;;2.58;1.10;;;20.50;72.20;;;;;;5007263;28;20080;-72
2023/04/23 10:37:35;;;;;;;3.28;1.13;;;21.00;71.60;;;;;;5014180;28;20052;-72
2023/04/23 10:40:10;;;;;;;2.20;1.08;;;21.90;69.60;;;;;;5012207;28;20093;-70
2023/04/23 10:42:37;;;;;;;2.20;1.10;;;21.90;67.60;;;;;;5016610;28;20442;-72
2023/04/23 10:45:15;;;;;;;2.65;1.10;;;21.20;69.60;;;;;;5023077;28;20350;-71
2023/04/23 10:47:44;;;;;;;2.35;1.00;;;20.70;70.90;;;;;;5028466;28;20033;-71
2023/04/23 10:50:22;;;;;;;1.90;0.95;;;20.20;70.10;;;;;;5015627;28;20036;-72
2023/04/23 10:52:52;;;;;;;2.28;1.00;;;20.20;72.00;;;;;;5017550;28;20073;-72
2023/04/23 10:55:21;;;;;;;1.60;0.80;;;20.40;69.50;;;;;;5009196;28;20034;-72
2023/04/23 10:58:07;;;;;;;1.98;0.90;;;20.60;69.50;;;;;;4998832;28;20126;-72
2023/04/23 11:00:45;;;;;;;2.85;1.08;;;20.60;69.80;;;;;;5009513;28;20033;-72
2023/04/23 11:03:29;;;;;;;2.38;1.00;;;20.90;69.40;;;;;;5017325;28;20018;-72
2023/04/23 11:05:55;;;;;;;2.67;1.10;;;20.90;68.70;;;;;;5018238;28;20034;-72
2023/04/23 11:08:21;;;;;;;2.75;1.05;;;19.90;69.50;;;;;;5011940;28;20033;-73
2023/04/23 11:11:00;;;;;;;2.75;1.13;;;19.50;69.40;;;;;;5007643;28;20038;-72
2023/04/23 11:13:27;;;;;;;2.38;0.98;;;19.00;70.50;;;;;;5007894;28;20145;-72
2023/04/23 11:16:21;;;;;;;3.08;1.00;;;18.30;72.30;;;;;;5008836;28;20080;-72
2023/04/23 11:19:11;;;;;;;1.93;1.10;;;18.20;74.40;;;;;;5013591;28;20034;-72
2023/04/23 11:22:07;;;;;;;2.97;1.15;;;19.20;74.00;;;;;;5018221;28;20029;-72
2023/04/23 11:24:43;;;;;;;2.97;1.00;;;19.50;72.50;;;;;;5009450;28;20046;-72
2023/04/23 11:27:19;;;;;;;5.35;1.20;;;18.70;72.70;;;;;;5015717;28;20077;-72
2023/04/23 11:29:46;;;;;;;2.50;1.05;;;18.40;73.10;;;;;;4997533;28;20061;-72
2023/04/23 11:32:15;;;;;;;1.55;0.90;;;18.70;73.00;;;;;;5009200;28;20085;-72
2023/04/23 11:34:48;;;;;;;3.28;0.90;;;19.20;72.00;;;;;;5004668;28;20101;-72
2023/04/23 11:37:15;;;;;;;2.50;0.90;;;19.90;72.70;;;;;;5015297;28;20037;-72
2023/04/23 11:39:42;;;;;;;3.03;1.00;;;19.60;70.40;;;;;;5003640;28;20304;-72
2023/04/23 11:42:15;;;;;;;11.88;1.60;;;19.70;71.60;;;;;;5004735;28;20449;-72
2023/04/23 11:44:42;;;;;;;6.38;1.35;;;20.70;70.70;;;;;;5012777;28;20050;-72
2023/04/23 11:47:11;;;;;;;2.38;0.90;;;21.80;68.20;;;;;;5015861;28;20033;-72
2023/04/23 11:49:38;;;;;;;1.90;0.90;;;23.00;66.40;;;;;;5019302;28;20080;-73
2023/04/23 11:52:04;;;;;;;2.22;0.90;;;22.80;63.80;;;;;;5017001;28;20026;-72
2023/04/23 11:54:30;;;;;;;2.35;1.00;;;22.90;65.00;;;;;;5010661;28;20030;-72
2023/04/23 11:56:59;;;;;;;2.28;0.80;;;23.60;63.30;;;;;;5016297;28;20025;-73
2023/04/23 11:59:25;;;;;;;2.10;0.80;;;23.60;62.50;;;;;;5000847;28;20121;-73
2023/04/23 12:01:53;;;;;;;2.17;0.85;;;23.00;63.30;;;;;;5009606;28;21578;-72
2023/04/23 12:04:21;;;;;;;1.85;0.90;;;21.90;66.20;;;;;;5012616;28;20052;-72
2023/04/23 12:06:48;;;;;;;1.77;0.90;;;21.70;65.70;;;;;;5015411;28;20037;-72
2023/04/23 12:09:15;;;;;;;2.25;0.90;;;21.50;67.10;;;;;;4998618;28;20077;-72
2023/04/23 12:11:43;;;;;;;3.13;1.10;;;21.40;67.50;;;;;;5007449;28;20031;-72
2023/04/23 12:14:10;;;;;;;2.83;0.85;;;21.60;66.50;;;;;;5014754;28;20033;-72
2023/04/23 12:16:43;;;;;;;1.92;0.90;;;21.50;66.30;;;;;;5013877;28;20029;-72
2023/04/23 12:19:12;;;;;;;2.90;1.20;;;21.40;66.60;;;;;;5012990;28;20033;-72
2023/04/23 12:21:48;;;;;;;2.90;0.95;;;20.80;67.50;;;;;;5014566;28;20048;-72
2023/04/23 12:24:14;;;;;;;2.10;1.00;;;20.40;67.50;;;;;;5012291;28;20100;-72
2023/04/23 12:26:42;;;;;;;3.85;1.40;;;19.80;68.70;;;;;;5016860;28;20030;-72
2023/04/23 12:29:08;;;;;;;4.90;1.10;;;19.10;70.50;;;;;;5015090;28;20030;-72
2023/04/23 12:31:36;;;;;;;3.88;1.50;;;19.00;70.40;;;;;;5015006;28;20422;-72
2023/04/23 12:34:03;;;;;;;4.20;1.60;;;19.10;71.30;;;;;;5014364;28;20120;-72
2023/04/23 12:36:30;;;;;;;3.65;1.20;;;19.00;71.00;;;;;;5015399;28;20061;-72
2023/04/23 12:39:29;;;;;;;4.90;1.23;;;18.80;71.50;;;;;;5011486;28;20351;-72
2023/04/23 12:42:01;;;;;;;3.90;1.33;;;19.20;71.60;;;;;;5001492;28;20034;-72
2023/04/23 12:44:27;;;;;;;5.70;1.73;;;19.30;72.40;;;;;;5023032;28;20322;-71
2023/04/23 12:46:57;;;;;;;4.13;1.33;;;19.00;71.20;;;;;;5008721;28;20030;-72
2023/04/23 12:49:22;;;;;;;3.30;1.30;;;18.40;71.70;;;;;;5015837;28;20033;-71